sensor_id;sensor_type;location;lat;lon;timestamp;pressure;altitude;pressure_sealevel;temperature;humidity
56689;BME280;42565;53.342;-1.534;2024-01-30T00:01:08;99105.48;;;8.90;100.00
56689;BME280;42565;53.342;-1.534;2024-01-30T00:03:35;99100.58;;;9.74;100.00
56689;BME280;42565;53.342;-1.534;2024-01-30T00:06:03;99098.88;;;10.27;99.85
56689;BME280;42565;53.342;-1.534;2024-01-30T00:08:30;99101.89;;;9.76;100.00
56689;BME280;42565;53.342;-1.534;2024-01-30T00:10:57;99105.98;;;9.68;100.00
56689;BME280;42565;53.342;-1.534;2024-01-30T00:13:25;99106.27;;;10.08;99.86
56689;BME280;42565;53.342;-1.534;2024-01-30T00:15:52;99106.88;;;9.64;100.00
56689;BME280;42565;53.342;-1.534;2024-01-30T00:18:19;99103.49;;;9.09;100.00
56689;BME280;42565;53.342;-1.534;2024-01-30T00:20:47;99104.37;;;9.98;100.00
56689;BME280;42565;53.342;-1.534;2024-01-30T00:23:14;99102.20;;;9.62;100.00
56689;BME280;42565;53.342;-1.534;2024-01-30T00:25:40;99101.59;;;10.02;100.00
56689;BME280;42565;53.342;-1.534;2024-01-30T00:28:08;99096.52;;;10.32;98.56
56689;BME280;42565;53.342;-1.534;2024-01-30T00:30:34;99100.61;;;9.99;97.97
56689;BME280;42565;53.342;-1.534;2024-01-30T00:33:02;99093.75;;;10.30;97.89
56689;BME280;42565;53.342;-1.534;2024-01-30T00:35:29;99094.45;;;9.95;98.16
56689;BME280;42565;53.342;-1.534;2024-01-30T00:37:56;99093.68;;;10.05;98.16
56689;BME280;42565;53.342;-1.534;2024-01-30T00:40:24;99094.31;;;9.39;100.00
56689;BME280;42565;53.342;-1.534;2024-01-30T00:42:51;99091.29;;;9.37;100.00
56689;BME280;42565;53.342;-1.534;2024-01-30T00:45:18;99084.64;;;9.31;100.00
56689;BME280;42565;53.342;-1.534;2024-01-30T00:47:45;99085.09;;;8.83;100.00
56689;BME280;42565;53.342;-1.534;2024-01-30T00:50:12;99081.05;;;9.00;100.00
56689;BME280;42565;53.342;-1.534;2024-01-30T00:52:39;99082.34;;;9.76;100.00
56689;BME280;42565;53.342;-1.534;2024-01-30T00:55:07;99079.70;;;9.75;100.00
56689;BME280;42565;53.342;-1.534;2024-01-30T00:57:34;99072.96;;;9.69;100.00
56689;BME280;42565;53.342;-1.534;2024-01-30T01:00:02;99076.14;;;9.44;100.00
56689;BME280;42565;53.342;-1.534;2024-01-30T01:02:29;99075.60;;;9.14;100.00
56689;BME280;42565;53.342;-1.534;2024-01-30T01:04:56;99072.68;;;9.08;100.00
56689;BME280;42565;53.342;-1.534;2024-01-30T01:07:24;99069.28;;;8.68;100.00
56689;BME280;42565;53.342;-1.534;2024-01-30T01:09:51;99068.81;;;9.37;100.00
56689;BME280;42565;53.342;-1.534;2024-01-30T01:12:18;99063.73;;;9.23;100.00
56689;BME280;42565;53.342;-1.534;2024-01-30T01:14:45;99061.22;;;9.25;100.00
56689;BME280;42565;53.342;-1.534;2024-01-30T01:17:12;99062.68;;;9.22;100.00
56689;BME280;42565;53.342;-1.534;2024-01-30T01:19:39;99063.18;;;8.92;100.00
56689;BME280;42565;53.342;-1.534;2024-01-30T01:22:07;99057.80;;;9.01;100.00
56689;BME280;42565;53.342;-1.534;2024-01-30T01:24:33;99057.14;;;9.58;100.00
56689;BME280;42565;53.342;-1.534;2024-01-30T01:27:01;99053.24;;;9.69;100.00
56689;BME280;42565;53.342;-1.534;2024-01-30T01:29:29;99055.92;;;9.13;100.00
56689;BME280;42565;53.342;-1.534;2024-01-30T01:31:56;99050.16;;;9.82;100.00
56689;BME280;42565;53.342;-1.534;2024-01-30T01:34:24;99050.57;;;9.19;100.00
56689;BME280;42565;53.342;-1.534;2024-01-30T01:36:51;99049.58;;;9.90;100.00
56689;BME280;42565;53.342;-1.534;2024-01-30T01:39:18;99049.47;;;9.77;100.00
56689;BME280;42565;53.342;-1.534;2024-01-30T01:41:45;99050.90;;;9.24;100.00
56689;BME280;42565;53.342;-1.534;2024-01-30T01:44:12;99048.10;;;9.18;100.00
56689;BME280;42565;53.342;-1.534;2024-01-30T01:46:39;99046.18;;;9.56;100.00
56689;BME280;42565;53.342;-1.534;2024-01-30T01:49:06;99042.51;;;8.83;100.00
56689;BME280;42565;53.342;-1.534;2024-01-30T01:51:35;99043.40;;;9.55;100.00
56689;BME280;42565;53.342;-1.534;2024-01-30T01:54:04;99046.42;;;9.13;100.00
56689;BME280;42565;53.342;-1.534;2024-01-30T01:56:33;99041.58;;;9.63;100.00
56689;BME280;42565;53.342;-1.534;2024-01-30T01:59:06;99041.98;;;9.40;100.00
56689;BME280;42565;53.342;-1.534;2024-01-30T02:01:34;99038.89;;;9.77;100.00
56689;BME280;42565;53.342;-1.534;2024-01-30T02:04:03;99044.57;;;10.21;99.37
56689;BME280;42565;53.342;-1.534;2024-01-30T02:06:31;99046.08;;;9.82;100.00
56689;BME280;42565;53.342;-1.534;2024-01-30T02:08:59;99048.17;;;10.38;98.51
56689;BME280;42565;53.342;-1.534;2024-01-30T02:11:26;99049.90;;;10.76;97.00
56689;BME280;42565;53.342;-1.534;2024-01-30T02:13:55;99054.25;;;10.04;98.63
56689;BME280;42565;53.342;-1.534;2024-01-30T02:16:22;99062.67;;;10.23;97.31
56689;BME280;42565;53.342;-1.534;2024-01-30T02:18:49;99079.25;;;9.78;94.92
56689;BME280;42565;53.342;-1.534;2024-01-30T02:21:16;99081.99;;;9.98;90.18
56689;BME280;42565;53.342;-1.534;2024-01-30T02:23:44;99081.39;;;9.60;87.99
56689;BME280;42565;53.342;-1.534;2024-01-30T02:26:13;99084.77;;;9.20;89.53
56689;BME280;42565;53.342;-1.534;2024-01-30T02:28:40;99083.86;;;9.37;89.49
56689;BME280;42565;53.342;-1.534;2024-01-30T02:31:08;99089.61;;;9.28;88.68
56689;BME280;42565;53.342;-1.534;2024-01-30T02:33:35;99083.65;;;9.48;87.56
56689;BME280;42565;53.342;-1.534;2024-01-30T02:36:03;99081.34;;;9.52;86.17
56689;BME280;42565;53.342;-1.534;2024-01-30T02:38:30;99076.10;;;8.92;87.55
56689;BME280;42565;53.342;-1.534;2024-01-30T02:40:58;99076.21;;;9.16;87.36
56689;BME280;42565;53.342;-1.534;2024-01-30T02:43:25;99077.61;;;9.36;85.61
56689;BME280;42565;53.342;-1.534;2024-01-30T02:45:52;99082.25;;;9.78;83.38
56689;BME280;42565;53.342;-1.534;2024-01-30T02:48:19;99082.07;;;9.96;82.92
56689;BME280;42565;53.342;-1.534;2024-01-30T02:50:45;99084.06;;;9.56;84.30
56689;BME280;42565;53.342;-1.534;2024-01-30T02:53:13;99081.09;;;8.91;85.98
56689;BME280;42565;53.342;-1.534;2024-01-30T02:55:41;99077.46;;;8.40;87.09
56689;BME280;42565;53.342;-1.534;2024-01-30T02:58:07;99072.64;;;8.84;86.67
56689;BME280;42565;53.342;-1.534;2024-01-30T03:00:35;99078.43;;;8.55;86.26
56689;BME280;42565;53.342;-1.534;2024-01-30T03:03:03;99082.41;;;8.68;86.60
56689;BME280;42565;53.342;-1.534;2024-01-30T03:05:30;99070.75;;;8.59;85.93
56689;BME280;42565;53.342;-1.534;2024-01-30T03:07:57;99071.23;;;7.88;86.33
56689;BME280;42565;53.342;-1.534;2024-01-30T03:10:23;99072.30;;;8.01;87.69
56689;BME280;42565;53.342;-1.534;2024-01-30T03:12:50;99072.49;;;8.35;84.61
56689;BME280;42565;53.342;-1.534;2024-01-30T03:15:18;99063.30;;;8.55;84.98
56689;BME280;42565;53.342;-1.534;2024-01-30T03:17:44;99071.51;;;7.87;85.87
56689;BME280;42565;53.342;-1.534;2024-01-30T03:20:11;99073.70;;;8.01;85.76
56689;BME280;42565;53.342;-1.534;2024-01-30T03:22:38;99072.03;;;8.19;84.83
56689;BME280;42565;53.342;-1.534;2024-01-30T03:25:06;99074.84;;;7.92;85.80
56689;BME280;42565;53.342;-1.534;2024-01-30T03:27:33;99075.86;;;7.54;85.35
56689;BME280;42565;53.342;-1.534;2024-01-30T03:29:59;99080.16;;;7.83;85.12
56689;BME280;42565;53.342;-1.534;2024-01-30T03:32:26;99087.55;;;7.84;84.20
56689;BME280;42565;53.342;-1.534;2024-01-30T03:34:53;99094.81;;;7.89;84.54
56689;BME280;42565;53.342;-1.534;2024-01-30T03:37:20;99098.18;;;7.83;84.60
56689;BME280;42565;53.342;-1.534;2024-01-30T03:39:48;99107.82;;;8.02;84.89
56689;BME280;42565;53.342;-1.534;2024-01-30T03:42:15;99118.88;;;7.99;82.81
56689;BME280;42565;53.342;-1.534;2024-01-30T03:44:41;99123.38;;;8.36;82.04
56689;BME280;42565;53.342;-1.534;2024-01-30T03:47:09;99131.11;;;8.52;80.22
56689;BME280;42565;53.342;-1.534;2024-01-30T03:49:35;99136.81;;;8.96;78.72
56689;BME280;42565;53.342;-1.534;2024-01-30T03:52:03;99140.95;;;8.63;78.41
56689;BME280;42565;53.342;-1.534;2024-01-30T03:54:31;99148.55;;;8.77;79.11
56689;BME280;42565;53.342;-1.534;2024-01-30T03:56:58;99154.74;;;8.70;78.00
56689;BME280;42565;53.342;-1.534;2024-01-30T03:59:26;99160.27;;;9.20;78.02
56689;BME280;42565;53.342;-1.534;2024-01-30T04:01:54;99163.10;;;9.09;77.22
56689;BME280;42565;53.342;-1.534;2024-01-30T04:04:21;99166.98;;;8.19;79.76
56689;BME280;42565;53.342;-1.534;2024-01-30T04:06:48;99163.75;;;8.61;79.94
56689;BME280;42565;53.342;-1.534;2024-01-30T04:09:16;99157.00;;;8.34;80.07
56689;BME280;42565;53.342;-1.534;2024-01-30T04:11:42;99157.25;;;8.47;79.85
56689;BME280;42565;53.342;-1.534;2024-01-30T04:14:09;99152.68;;;7.67;82.31
56689;BME280;42565;53.342;-1.534;2024-01-30T04:16:36;99148.41;;;7.82;82.65
56689;BME280;42565;53.342;-1.534;2024-01-30T04:19:03;99148.22;;;7.29;82.81
56689;BME280;42565;53.342;-1.534;2024-01-30T04:21:30;99143.53;;;7.35;83.16
56689;BME280;42565;53.342;-1.534;2024-01-30T04:23:57;99160.04;;;6.97;84.83
56689;BME280;42565;53.342;-1.534;2024-01-30T04:26:24;99168.23;;;7.56;84.87
56689;BME280;42565;53.342;-1.534;2024-01-30T04:28:52;99172.10;;;7.03;84.33
56689;BME280;42565;53.342;-1.534;2024-01-30T04:31:20;99176.93;;;7.15;84.53
56689;BME280;42565;53.342;-1.534;2024-01-30T04:33:47;99173.87;;;7.28;83.57
56689;BME280;42565;53.342;-1.534;2024-01-30T04:36:14;99180.34;;;7.70;83.08
56689;BME280;42565;53.342;-1.534;2024-01-30T04:38:41;99181.94;;;7.41;82.83
56689;BME280;42565;53.342;-1.534;2024-01-30T04:41:08;99185.18;;;7.52;81.52
56689;BME280;42565;53.342;-1.534;2024-01-30T04:43:34;99191.81;;;7.63;82.14
56689;BME280;42565;53.342;-1.534;2024-01-30T04:46:03;99192.45;;;8.01;80.79
56689;BME280;42565;53.342;-1.534;2024-01-30T04:48:30;99194.41;;;7.87;81.24
56689;BME280;42565;53.342;-1.534;2024-01-30T04:50:57;99190.60;;;7.57;82.30
56689;BME280;42565;53.342;-1.534;2024-01-30T04:53:25;99194.25;;;7.56;83.56
56689;BME280;42565;53.342;-1.534;2024-01-30T04:55:51;99210.07;;;7.07;87.40
56689;BME280;42565;53.342;-1.534;2024-01-30T04:58:18;99214.97;;;7.14;85.68
56689;BME280;42565;53.342;-1.534;2024-01-30T05:00:45;99223.19;;;6.94;86.29
56689;BME280;42565;53.342;-1.534;2024-01-30T05:03:12;99232.68;;;7.20;85.71
56689;BME280;42565;53.342;-1.534;2024-01-30T05:05:39;99242.05;;;7.32;84.87
56689;BME280;42565;53.342;-1.534;2024-01-30T05:08:07;99256.48;;;7.54;83.61
56689;BME280;42565;53.342;-1.534;2024-01-30T05:10:33;99263.00;;;7.76;84.01
56689;BME280;42565;53.342;-1.534;2024-01-30T05:13:00;99262.74;;;8.04;81.66
56689;BME280;42565;53.342;-1.534;2024-01-30T05:15:27;99268.37;;;7.90;82.85
56689;BME280;42565;53.342;-1.534;2024-01-30T05:17:54;99267.24;;;7.88;82.74
56689;BME280;42565;53.342;-1.534;2024-01-30T05:20:21;99273.61;;;7.01;84.94
56689;BME280;42565;53.342;-1.534;2024-01-30T05:22:48;99278.50;;;7.70;84.03
56689;BME280;42565;53.342;-1.534;2024-01-30T05:25:14;99285.10;;;7.72;83.21
56689;BME280;42565;53.342;-1.534;2024-01-30T05:27:41;99295.54;;;7.88;83.75
56689;BME280;42565;53.342;-1.534;2024-01-30T05:30:08;99301.58;;;7.98;83.91
56689;BME280;42565;53.342;-1.534;2024-01-30T05:32:35;99306.43;;;8.26;82.60
56689;BME280;42565;53.342;-1.534;2024-01-30T05:35:03;99315.45;;;8.55;82.21
56689;BME280;42565;53.342;-1.534;2024-01-30T05:37:30;99316.60;;;8.41;81.35
56689;BME280;42565;53.342;-1.534;2024-01-30T05:39:57;99319.72;;;7.71;83.10
56689;BME280;42565;53.342;-1.534;2024-01-30T05:42:25;99325.78;;;7.96;82.44
56689;BME280;42565;53.342;-1.534;2024-01-30T05:44:52;99333.91;;;7.98;81.91
56689;BME280;42565;53.342;-1.534;2024-01-30T05:47:19;99341.82;;;7.78;82.33
56689;BME280;42565;53.342;-1.534;2024-01-30T05:49:45;99350.37;;;8.50;80.40
56689;BME280;42565;53.342;-1.534;2024-01-30T05:52:12;99354.87;;;7.56;81.59
56689;BME280;42565;53.342;-1.534;2024-01-30T05:54:39;99357.46;;;8.24;81.18
56689;BME280;42565;53.342;-1.534;2024-01-30T05:57:06;99355.08;;;8.05;81.63
56689;BME280;42565;53.342;-1.534;2024-01-30T05:59:33;99358.55;;;7.83;82.62
56689;BME280;42565;53.342;-1.534;2024-01-30T06:02:00;99358.06;;;8.26;81.31
56689;BME280;42565;53.342;-1.534;2024-01-30T06:04:27;99365.93;;;8.17;81.42
56689;BME280;42565;53.342;-1.534;2024-01-30T06:06:55;99372.57;;;8.12;81.06
56689;BME280;42565;53.342;-1.534;2024-01-30T06:09:21;99374.78;;;8.50;79.27
56689;BME280;42565;53.342;-1.534;2024-01-30T06:11:48;99380.48;;;8.53;78.92
56689;BME280;42565;53.342;-1.534;2024-01-30T06:14:15;99389.79;;;8.24;78.80
56689;BME280;42565;53.342;-1.534;2024-01-30T06:16:42;99399.72;;;8.56;78.96
56689;BME280;42565;53.342;-1.534;2024-01-30T06:19:08;99410.08;;;8.18;79.20
56689;BME280;42565;53.342;-1.534;2024-01-30T06:21:35;99415.73;;;8.46;78.50
56689;BME280;42565;53.342;-1.534;2024-01-30T06:24:02;99427.50;;;8.25;78.92
56689;BME280;42565;53.342;-1.534;2024-01-30T06:26:29;99430.53;;;8.52;78.63
56689;BME280;42565;53.342;-1.534;2024-01-30T06:28:56;99439.87;;;8.45;78.20
56689;BME280;42565;53.342;-1.534;2024-01-30T06:31:23;99448.28;;;8.45;78.39
56689;BME280;42565;53.342;-1.534;2024-01-30T06:33:50;99449.51;;;8.73;78.35
56689;BME280;42565;53.342;-1.534;2024-01-30T06:36:17;99455.55;;;8.54;78.04
56689;BME280;42565;53.342;-1.534;2024-01-30T06:38:43;99458.66;;;8.98;76.95
56689;BME280;42565;53.342;-1.534;2024-01-30T06:41:10;99462.39;;;8.65;76.64
56689;BME280;42565;53.342;-1.534;2024-01-30T06:43:37;99470.06;;;8.44;76.94
56689;BME280;42565;53.342;-1.534;2024-01-30T06:46:04;99472.83;;;8.32;75.88
56689;BME280;42565;53.342;-1.534;2024-01-30T06:48:31;99474.28;;;8.90;75.18
56689;BME280;42565;53.342;-1.534;2024-01-30T06:50:58;99484.05;;;8.18;76.36
56689;BME280;42565;53.342;-1.534;2024-01-30T06:53:24;99487.20;;;8.41;76.35
56689;BME280;42565;53.342;-1.534;2024-01-30T06:55:52;99497.25;;;8.42;76.48
56689;BME280;42565;53.342;-1.534;2024-01-30T06:58:19;99503.09;;;8.17;77.26
56689;BME280;42565;53.342;-1.534;2024-01-30T07:00:45;99506.71;;;8.07;77.97
56689;BME280;42565;53.342;-1.534;2024-01-30T07:03:13;99512.12;;;8.01;77.16
56689;BME280;42565;53.342;-1.534;2024-01-30T07:05:39;99514.72;;;8.12;76.86
56689;BME280;42565;53.342;-1.534;2024-01-30T07:08:06;99523.48;;;8.57;76.59
56689;BME280;42565;53.342;-1.534;2024-01-30T07:10:34;99525.33;;;8.26;76.84
56689;BME280;42565;53.342;-1.534;2024-01-30T07:13:02;99533.59;;;8.12;77.28
56689;BME280;42565;53.342;-1.534;2024-01-30T07:15:29;99539.02;;;8.39;76.33
56689;BME280;42565;53.342;-1.534;2024-01-30T07:17:56;99545.95;;;7.93;77.22
56689;BME280;42565;53.342;-1.534;2024-01-30T07:20:24;99552.37;;;8.41;76.12
56689;BME280;42565;53.342;-1.534;2024-01-30T07:22:51;99561.20;;;8.00;76.51
56689;BME280;42565;53.342;-1.534;2024-01-30T07:25:18;99568.27;;;7.83;76.58
56689;BME280;42565;53.342;-1.534;2024-01-30T07:27:46;99571.94;;;8.65;76.01
56689;BME280;42565;53.342;-1.534;2024-01-30T07:30:13;99580.52;;;7.96;76.26
56689;BME280;42565;53.342;-1.534;2024-01-30T07:32:40;99588.03;;;8.48;75.53
56689;BME280;42565;53.342;-1.534;2024-01-30T07:35:07;99594.93;;;8.04;75.23
56689;BME280;42565;53.342;-1.534;2024-01-30T07:37:34;99595.82;;;7.88;76.82
56689;BME280;42565;53.342;-1.534;2024-01-30T07:40:02;99600.26;;;8.13;76.55
56689;BME280;42565;53.342;-1.534;2024-01-30T07:42:29;99608.48;;;7.91;77.02
56689;BME280;42565;53.342;-1.534;2024-01-30T07:44:57;99609.94;;;8.11;76.64
56689;BME280;42565;53.342;-1.534;2024-01-30T07:47:24;99615.41;;;7.98;76.87
56689;BME280;42565;53.342;-1.534;2024-01-30T07:49:52;99623.05;;;7.76;76.80
56689;BME280;42565;53.342;-1.534;2024-01-30T07:52:19;99628.09;;;7.85;75.90
56689;BME280;42565;53.342;-1.534;2024-01-30T07:54:46;99638.09;;;7.61;76.11
56689;BME280;42565;53.342;-1.534;2024-01-30T07:57:13;99641.55;;;8.03;74.87
56689;BME280;42565;53.342;-1.534;2024-01-30T07:59:42;99646.20;;;8.12;74.39
56689;BME280;42565;53.342;-1.534;2024-01-30T08:02:14;99651.19;;;7.80;74.69
56689;BME280;42565;53.342;-1.534;2024-01-30T08:04:41;99652.52;;;8.03;74.33
56689;BME280;42565;53.342;-1.534;2024-01-30T08:07:09;99661.11;;;8.07;74.82
56689;BME280;42565;53.342;-1.534;2024-01-30T08:09:35;99669.03;;;8.38;72.58
56689;BME280;42565;53.342;-1.534;2024-01-30T08:12:03;99670.61;;;7.74;74.35
56689;BME280;42565;53.342;-1.534;2024-01-30T08:14:30;99674.57;;;7.85;74.18
56689;BME280;42565;53.342;-1.534;2024-01-30T08:16:57;99679.34;;;7.86;74.47
56689;BME280;42565;53.342;-1.534;2024-01-30T08:19:24;99687.05;;;7.81;73.85
56689;BME280;42565;53.342;-1.534;2024-01-30T08:21:51;99688.94;;;7.65;74.14
56689;BME280;42565;53.342;-1.534;2024-01-30T08:24:17;99692.85;;;8.15;72.99
56689;BME280;42565;53.342;-1.534;2024-01-30T08:26:45;99706.10;;;7.89;73.85
56689;BME280;42565;53.342;-1.534;2024-01-30T08:29:12;99710.71;;;7.68;74.00
56689;BME280;42565;53.342;-1.534;2024-01-30T08:31:39;99718.08;;;7.85;73.33
56689;BME280;42565;53.342;-1.534;2024-01-30T08:34:06;99729.41;;;7.94;73.36
56689;BME280;42565;53.342;-1.534;2024-01-30T08:36:32;99735.19;;;7.70;73.88
56689;BME280;42565;53.342;-1.534;2024-01-30T08:38:59;99743.96;;;7.69;73.59
56689;BME280;42565;53.342;-1.534;2024-01-30T08:41:26;99747.72;;;7.55;74.22
56689;BME280;42565;53.342;-1.534;2024-01-30T08:43:52;99751.72;;;7.33;74.67
56689;BME280;42565;53.342;-1.534;2024-01-30T08:46:19;99759.77;;;7.64;74.73
56689;BME280;42565;53.342;-1.534;2024-01-30T08:48:47;99764.07;;;7.78;74.56
56689;BME280;42565;53.342;-1.534;2024-01-30T08:51:13;99765.07;;;7.71;73.94
56689;BME280;42565;53.342;-1.534;2024-01-30T08:53:40;99771.05;;;7.81;73.97
56689;BME280;42565;53.342;-1.534;2024-01-30T08:56:07;99774.83;;;7.37;74.53
56689;BME280;42565;53.342;-1.534;2024-01-30T08:58:34;99782.91;;;7.74;74.05
56689;BME280;42565;53.342;-1.534;2024-01-30T09:01:02;99793.07;;;7.73;73.95
56689;BME280;42565;53.342;-1.534;2024-01-30T09:03:29;99797.49;;;7.47;74.67
56689;BME280;42565;53.342;-1.534;2024-01-30T09:05:56;99806.13;;;7.72;74.41
56689;BME280;42565;53.342;-1.534;2024-01-30T09:08:23;99808.51;;;7.55;75.19
56689;BME280;42565;53.342;-1.534;2024-01-30T09:10:50;99818.59;;;7.39;75.02
56689;BME280;42565;53.342;-1.534;2024-01-30T09:13:17;99822.74;;;7.51;75.14
56689;BME280;42565;53.342;-1.534;2024-01-30T09:15:44;99828.45;;;7.46;74.42
56689;BME280;42565;53.342;-1.534;2024-01-30T09:18:10;99835.66;;;7.48;74.01
56689;BME280;42565;53.342;-1.534;2024-01-30T09:20:37;99842.67;;;7.67;72.39
56689;BME280;42565;53.342;-1.534;2024-01-30T09:23:04;99852.33;;;7.52;71.66
56689;BME280;42565;53.342;-1.534;2024-01-30T09:25:31;99861.78;;;7.86;72.23
56689;BME280;42565;53.342;-1.534;2024-01-30T09:27:59;99867.86;;;7.83;72.55
56689;BME280;42565;53.342;-1.534;2024-01-30T09:30:25;99870.51;;;8.14;71.85
56689;BME280;42565;53.342;-1.534;2024-01-30T09:32:52;99874.58;;;8.11;71.33
56689;BME280;42565;53.342;-1.534;2024-01-30T09:35:19;99881.27;;;7.65;71.88
56689;BME280;42565;53.342;-1.534;2024-01-30T09:37:45;99879.69;;;7.72;71.40
56689;BME280;42565;53.342;-1.534;2024-01-30T09:40:12;99887.88;;;7.82;71.89
56689;BME280;42565;53.342;-1.534;2024-01-30T09:42:40;99894.21;;;7.89;71.23
56689;BME280;42565;53.342;-1.534;2024-01-30T09:45:11;99902.47;;;8.21;70.19
56689;BME280;42565;53.342;-1.534;2024-01-30T09:47:42;99906.40;;;7.79;70.27
56689;BME280;42565;53.342;-1.534;2024-01-30T09:50:10;99912.78;;;7.35;69.47
56689;BME280;42565;53.342;-1.534;2024-01-30T09:52:38;99918.83;;;7.47;71.10
56689;BME280;42565;53.342;-1.534;2024-01-30T09:55:06;99927.12;;;7.18;69.32
56689;BME280;42565;53.342;-1.534;2024-01-30T09:57:34;99927.27;;;7.34;70.18
56689;BME280;42565;53.342;-1.534;2024-01-30T10:00:04;99931.35;;;7.48;70.38
56689;BME280;42565;53.342;-1.534;2024-01-30T10:02:32;99932.29;;;7.75;69.05
56689;BME280;42565;53.342;-1.534;2024-01-30T10:04:59;99935.66;;;7.53;69.30
56689;BME280;42565;53.342;-1.534;2024-01-30T10:07:26;99938.69;;;8.28;68.30
56689;BME280;42565;53.342;-1.534;2024-01-30T10:09:54;99943.95;;;8.19;68.59
56689;BME280;42565;53.342;-1.534;2024-01-30T10:12:22;99947.09;;;7.91;67.83
56689;BME280;42565;53.342;-1.534;2024-01-30T10:14:49;99950.17;;;7.77;67.94
56689;BME280;42565;53.342;-1.534;2024-01-30T10:17:17;99953.26;;;7.78;67.43
56689;BME280;42565;53.342;-1.534;2024-01-30T10:19:43;99957.84;;;7.39;69.24
56689;BME280;42565;53.342;-1.534;2024-01-30T10:22:10;99965.65;;;7.84;68.55
56689;BME280;42565;53.342;-1.534;2024-01-30T10:24:37;99969.88;;;7.33;69.13
56689;BME280;42565;53.342;-1.534;2024-01-30T10:27:06;99982.34;;;7.31;69.54
56689;BME280;42565;53.342;-1.534;2024-01-30T10:29:33;99985.47;;;7.28;69.04
56689;BME280;42565;53.342;-1.534;2024-01-30T10:32:00;99992.78;;;7.19;69.74
56689;BME280;42565;53.342;-1.534;2024-01-30T10:34:27;99999.66;;;7.70;66.94
56689;BME280;42565;53.342;-1.534;2024-01-30T10:36:59;100007.20;;;7.43;67.85
56689;BME280;42565;53.342;-1.534;2024-01-30T10:39:29;100010.21;;;7.48;69.84
56689;BME280;42565;53.342;-1.534;2024-01-30T10:42:00;100013.98;;;7.80;66.95
56689;BME280;42565;53.342;-1.534;2024-01-30T10:44:36;100021.86;;;7.98;67.96
56689;BME280;42565;53.342;-1.534;2024-01-30T10:47:06;100029.98;;;7.89;67.19
56689;BME280;42565;53.342;-1.534;2024-01-30T10:49:39;100032.14;;;8.02;66.08
56689;BME280;42565;53.342;-1.534;2024-01-30T10:52:08;100031.63;;;7.88;67.29
56689;BME280;42565;53.342;-1.534;2024-01-30T10:54:36;100033.12;;;8.30;67.32
56689;BME280;42565;53.342;-1.534;2024-01-30T10:57:05;100037.36;;;8.57;65.81
56689;BME280;42565;53.342;-1.534;2024-01-30T10:59:33;100041.84;;;8.82;62.71
56689;BME280;42565;53.342;-1.534;2024-01-30T11:02:01;100054.90;;;8.66;63.50
56689;BME280;42565;53.342;-1.534;2024-01-30T11:04:36;100060.61;;;9.11;62.92
56689;BME280;42565;53.342;-1.534;2024-01-30T11:07:13;100059.28;;;9.63;61.81
56689;BME280;42565;53.342;-1.534;2024-01-30T11:09:40;100056.33;;;9.19;59.94
56689;BME280;42565;53.342;-1.534;2024-01-30T11:12:12;100065.12;;;9.58;60.48
56689;BME280;42565;53.342;-1.534;2024-01-30T11:14:39;100066.09;;;9.51;59.48
56689;BME280;42565;53.342;-1.534;2024-01-30T11:17:10;100072.92;;;9.59;56.96
56689;BME280;42565;53.342;-1.534;2024-01-30T11:19:37;100072.34;;;9.80;57.51
56689;BME280;42565;53.342;-1.534;2024-01-30T11:22:06;100073.54;;;9.78;58.52
56689;BME280;42565;53.342;-1.534;2024-01-30T11:24:39;100074.60;;;10.28;57.70
56689;BME280;42565;53.342;-1.534;2024-01-30T11:27:09;100071.44;;;10.07;58.43
56689;BME280;42565;53.342;-1.534;2024-01-30T11:29:36;100069.33;;;9.77;57.98
56689;BME280;42565;53.342;-1.534;2024-01-30T11:32:04;100074.72;;;8.93;58.11
56689;BME280;42565;53.342;-1.534;2024-01-30T11:34:33;100076.79;;;9.35;59.31
56689;BME280;42565;53.342;-1.534;2024-01-30T11:37:03;100075.95;;;9.46;58.87
56689;BME280;42565;53.342;-1.534;2024-01-30T11:39:32;100086.59;;;9.93;59.16
56689;BME280;42565;53.342;-1.534;2024-01-30T11:42:00;100090.08;;;9.53;58.48
56689;BME280;42565;53.342;-1.534;2024-01-30T11:44:27;100096.28;;;9.68;58.25
56689;BME280;42565;53.342;-1.534;2024-01-30T11:46:55;100100.72;;;9.43;58.27
56689;BME280;42565;53.342;-1.534;2024-01-30T11:49:23;100104.10;;;9.79;58.49
56689;BME280;42565;53.342;-1.534;2024-01-30T11:51:50;100106.20;;;9.46;58.94
56689;BME280;42565;53.342;-1.534;2024-01-30T11:54:19;100111.03;;;10.52;57.01
56689;BME280;42565;53.342;-1.534;2024-01-30T11:56:46;100111.35;;;10.34;57.72
56689;BME280;42565;53.342;-1.534;2024-01-30T11:59:14;100115.65;;;10.35;56.00
56689;BME280;42565;53.342;-1.534;2024-01-30T12:01:41;100113.41;;;10.17;56.19
56689;BME280;42565;53.342;-1.534;2024-01-30T12:04:09;100118.98;;;9.75;57.09
56689;BME280;42565;53.342;-1.534;2024-01-30T12:06:36;100118.33;;;10.37;58.27
56689;BME280;42565;53.342;-1.534;2024-01-30T12:09:03;100116.51;;;10.41;56.65
56689;BME280;42565;53.342;-1.534;2024-01-30T12:11:31;100118.89;;;10.79;55.31
56689;BME280;42565;53.342;-1.534;2024-01-30T12:13:58;100127.50;;;9.84;55.94
56689;BME280;42565;53.342;-1.534;2024-01-30T12:16:26;100132.31;;;9.32;57.34
56689;BME280;42565;53.342;-1.534;2024-01-30T12:18:59;100136.23;;;9.86;57.67
56689;BME280;42565;53.342;-1.534;2024-01-30T12:21:27;100139.98;;;10.26;57.93
56689;BME280;42565;53.342;-1.534;2024-01-30T12:23:54;100144.95;;;10.57;56.29
56689;BME280;42565;53.342;-1.534;2024-01-30T12:26:22;100143.48;;;9.87;57.89
56689;BME280;42565;53.342;-1.534;2024-01-30T12:28:49;100147.94;;;10.18;58.27
56689;BME280;42565;53.342;-1.534;2024-01-30T12:31:16;100152.19;;;9.61;57.84
56689;BME280;42565;53.342;-1.534;2024-01-30T12:33:44;100150.61;;;9.19;57.39
56689;BME280;42565;53.342;-1.534;2024-01-30T12:36:11;100158.47;;;8.99;59.23
56689;BME280;42565;53.342;-1.534;2024-01-30T12:38:39;100162.16;;;9.12;59.49
56689;BME280;42565;53.342;-1.534;2024-01-30T12:41:07;100155.39;;;9.29;57.39
56689;BME280;42565;53.342;-1.534;2024-01-30T12:43:34;100164.09;;;9.36;57.60
56689;BME280;42565;53.342;-1.534;2024-01-30T12:46:03;100168.39;;;8.94;57.98
56689;BME280;42565;53.342;-1.534;2024-01-30T12:48:30;100177.14;;;9.12;57.40
56689;BME280;42565;53.342;-1.534;2024-01-30T12:50:56;100179.85;;;8.90;57.62
56689;BME280;42565;53.342;-1.534;2024-01-30T12:53:24;100190.41;;;9.44;57.93
56689;BME280;42565;53.342;-1.534;2024-01-30T12:55:51;100191.33;;;9.40;58.22